createdAt,value
2018-07-19T08:35:20.722Z,23.85
2018-07-19T08:36:24.276Z,23.97
2018-07-19T08:38:52.573Z,24.19
2018-07-19T08:40:00.279Z,24.24
2018-07-19T08:42:13.807Z,24.37
2018-07-19T08:43:17.237Z,24.41
2018-07-19T09:02:40.350Z,23.94
2018-07-19T09:03:44.659Z,24.02
2018-07-19T09:04:47.276Z,24.14
2018-07-19T09:05:49.986Z,24.28
2018-07-19T09:06:52.586Z,24.34
2018-07-19T09:07:55.180Z,24.40
2018-07-19T09:08:59.196Z,24.49
2018-07-19T09:10:02.565Z,24.53
2018-07-19T09:11:06.306Z,24.51
2018-07-19T09:12:09.809Z,24.56
2018-07-19T09:13:12.362Z,24.63
2018-07-19T09:14:14.907Z,24.69
2018-07-19T09:15:17.937Z,24.73
2018-07-19T09:16:20.504Z,24.78
2018-07-19T09:17:23.888Z,24.76
2018-07-19T22:12:56.056Z,23.69
2018-07-19T22:13:58.779Z,25.13
2018-07-19T22:15:01.429Z,25.27
2018-07-19T22:16:06.184Z,25.42
2018-07-19T22:17:09.035Z,25.52
2018-07-19T22:18:14.768Z,25.60
2018-07-19T22:19:17.327Z,25.65
2018-07-19T22:20:20.030Z,25.70
2018-07-19T22:21:22.699Z,25.73
2018-07-19T22:22:25.199Z,25.75
2018-07-19T22:23:27.922Z,25.77
2018-07-19T22:24:30.825Z,25.78
2018-07-19T22:25:33.522Z,25.80
2018-07-19T22:26:37.352Z,25.81
2018-07-19T22:27:40.135Z,25.82
2018-07-19T22:28:42.854Z,25.83
2018-07-19T22:29:45.996Z,25.82
2018-07-19T22:30:48.872Z,25.82
2018-07-19T22:31:51.478Z,25.83
2018-07-19T22:32:54.027Z,25.83
2018-07-19T22:33:56.623Z,25.82
2018-07-19T22:34:59.762Z,25.84
2018-07-19T22:36:02.322Z,25.86
2018-07-19T22:37:05.501Z,25.86
2018-07-19T22:38:08.627Z,25.87
2018-07-19T22:39:11.647Z,25.87
2018-07-19T22:40:14.988Z,25.84
2018-07-19T22:41:17.593Z,25.83
2018-07-19T22:42:22.398Z,25.85
2018-07-19T22:43:28.572Z,25.83
2018-07-19T22:44:31.711Z,25.78
2018-07-19T22:45:34.740Z,25.71
2018-07-19T22:46:37.342Z,25.68
2018-07-19T22:47:40.646Z,25.71
2018-07-19T22:48:43.169Z,25.70
2018-07-19T22:49:46.741Z,25.71
2018-07-19T22:50:49.972Z,25.71
2018-07-19T22:51:53.562Z,25.70
2018-07-19T22:52:57.513Z,25.68
2018-07-19T22:54:01.023Z,25.73
2018-07-19T22:55:04.493Z,25.71
2018-07-19T22:56:07.463Z,25.72
2018-07-19T22:57:10.285Z,25.70
2018-07-19T22:58:15.296Z,25.71
2018-07-19T22:59:20.841Z,25.72
2018-07-19T23:00:25.476Z,25.71
2018-07-19T23:01:29.018Z,25.71
2018-07-19T23:02:34.476Z,25.78
2018-07-19T23:03:39.168Z,25.75
2018-07-19T23:04:42.080Z,25.73
2018-07-19T23:05:45.493Z,25.73
2018-07-19T23:06:48.116Z,25.72
2018-07-19T23:07:50.722Z,25.70
2018-07-19T23:08:54.319Z,25.69
2018-07-19T23:09:57.516Z,25.71
2018-07-19T23:11:00.909Z,25.74
2018-07-19T23:12:04.092Z,25.76
2018-07-19T23:13:06.756Z,25.77
2018-07-19T23:14:09.600Z,25.79
2018-07-19T23:15:12.562Z,25.76
2018-07-19T23:16:15.091Z,25.77
2018-07-19T23:17:17.691Z,25.80
2018-07-19T23:18:20.451Z,25.77
2018-07-19T23:19:24.688Z,25.78
2018-07-19T23:20:27.221Z,25.75
2018-07-19T23:21:31.153Z,25.76
2018-07-19T23:22:33.734Z,25.76
2018-07-19T23:23:36.302Z,25.72
2018-07-19T23:24:42.407Z,25.67
2018-07-19T23:25:44.932Z,25.64
2018-07-19T23:26:48.412Z,25.62
2018-07-19T23:27:51.325Z,25.60
